Time;durP1;ratioP1;P1;durP2;ratioP2;P2;SDS_P1;SDS_P2;PMS_P1;PMS_P2;Temp;Humidity;BMP_temperature;BMP_pressure;BME280_temperature;BME280_humidity;BME280_pressure;Samples;Min_cycle;Max_cycle;Signal;HPM_P1;HPM_P2
2021/08/07 00:00:13;;;;;;;33.23;27.13;;;;;;;11.27;100.00;98208.44;2089258;28;20234;-76
2021/08/07 00:01:13;;;;;;;35.45;26.50;;;;;;;11.29;100.00;98205.44;2089230;28;20669;-75
2021/08/07 00:02:15;;;;;;;28.73;25.73;;;;;;;11.29;100.00;98210.78;2089812;28;20595;-75
2021/08/07 00:03:18;;;;;;;33.38;26.42;;;;;;;11.29;100.00;98211.59;2089970;28;20222;-76
2021/08/07 00:04:19;;;;;;;33.40;26.70;;;;;;;11.27;100.00;98204.97;2089803;28;20235;-75
2021/08/07 00:05:22;;;;;;;31.43;26.77;;;;;;;11.28;100.00;98210.00;2090075;28;20302;-76
2021/08/07 00:06:23;;;;;;;30.95;26.77;;;;;;;11.28;100.00;98215.34;2089744;28;20739;-75
2021/08/07 00:07:26;;;;;;;30.03;26.90;;;;;;;11.29;100.00;98219.59;2089893;28;20669;-75
2021/08/07 00:08:26;;;;;;;30.88;26.02;;;;;;;11.30;100.00;98212.38;2089467;28;20245;-76
2021/08/07 00:09:28;;;;;;;31.77;25.97;;;;;;;11.31;100.00;98221.94;2089292;28;20234;-76
2021/08/07 00:10:29;;;;;;;29.00;25.98;;;;;;;11.37;100.00;98226.00;2090099;28;20301;-76
2021/08/07 00:11:31;;;;;;;30.63;27.33;;;;;;;11.38;100.00;98219.56;2090003;28;20585;-76
2021/08/07 00:12:31;;;;;;;28.95;25.98;;;;;;;11.40;100.00;98212.00;2090133;28;20222;-75
2021/08/07 00:13:33;;;;;;;33.97;26.20;;;;;;;11.46;100.00;98220.59;2090121;28;20218;-76
2021/08/07 00:14:34;;;;;;;29.55;26.45;;;;;;;11.46;100.00;98216.03;2090123;28;20297;-76
2021/08/07 00:15:35;;;;;;;28.77;26.00;;;;;;;11.50;100.00;98218.88;2089266;28;20227;-76
2021/08/07 00:16:36;;;;;;;30.10;25.75;;;;;;;11.51;100.00;98217.75;2080831;28;20369;-75
2021/08/07 00:17:38;;;;;;;30.60;24.80;;;;;;;11.56;100.00;98217.59;2088927;28;20234;-75
2021/08/07 00:18:40;;;;;;;28.67;24.98;;;;;;;11.56;100.00;98212.25;2090063;28;20723;-75
2021/08/07 00:19:41;;;;;;;27.40;24.65;;;;;;;11.59;100.00;98217.72;2089400;28;20305;-75
2021/08/07 00:20:43;;;;;;;30.40;26.30;;;;;;;11.63;100.00;98215.16;2089175;28;20229;-75
2021/08/07 00:21:45;;;;;;;27.77;25.27;;;;;;;11.65;100.00;98212.97;2089213;28;20222;-76
2021/08/07 00:22:46;;;;;;;29.42;26.40;;;;;;;11.71;100.00;98217.00;2089125;28;20241;-76
2021/08/07 00:23:47;;;;;;;29.52;26.45;;;;;;;11.72;100.00;98210.56;2089166;28;20249;-75
2021/08/07 00:24:49;;;;;;;27.27;24.67;;;;;;;11.73;100.00;98209.47;2089931;28;20222;-75
2021/08/07 00:25:51;;;;;;;30.67;27.73;;;;;;;11.73;100.00;98217.50;2089265;28;20222;-75
2021/08/07 00:26:51;;;;;;;30.40;26.00;;;;;;;11.75;100.00;98217.16;2081131;28;20651;-75
2021/08/07 00:27:53;;;;;;;27.67;25.17;;;;;;;11.74;100.00;98216.38;2088691;28;20230;-75
2021/08/07 00:28:54;;;;;;;27.80;24.85;;;;;;;11.78;100.00;98211.94;2089311;28;20756;-75
2021/08/07 00:29:56;;;;;;;30.10;27.17;;;;;;;11.78;100.00;98216.50;2089969;28;20568;-76
2021/08/07 00:30:56;;;;;;;30.42;26.20;;;;;;;11.78;100.00;98216.50;2089925;28;20239;-75
2021/08/07 00:31:58;;;;;;;26.73;24.13;;;;;;;11.79;100.00;98208.16;2089220;28;20693;-75
2021/08/07 00:33:00;;;;;;;27.30;24.55;;;;;;;11.78;100.00;98211.16;2081028;28;20802;-75
2021/08/07 00:34:02;;;;;;;29.30;25.98;;;;;;;11.77;100.00;98215.72;2081098;28;20223;-75
2021/08/07 00:35:05;;;;;;;28.50;25.13;;;;;;;11.78;100.00;98205.81;2081037;28;20223;-76
2021/08/07 00:36:09;;;;;;;28.20;25.42;;;;;;;11.77;100.00;98220.28;2080647;28;20231;-74
2021/08/07 00:37:11;;;;;;;29.00;26.25;;;;;;;11.79;100.00;98213.50;2072642;28;22724;-75
2021/08/07 00:38:23;;;;;;;28.02;25.13;;;;;;;11.77;100.00;98212.28;2077756;28;20318;-75
2021/08/07 00:39:24;;;;;;;31.08;24.42;;;;;;;11.75;100.00;98212.59;2080919;28;20223;-76
2021/08/07 00:40:26;;;;;;;27.10;24.25;;;;;;;11.75;100.00;98214.50;2080923;28;20223;-75
2021/08/07 00:41:30;;;;;;;27.92;25.15;;;;;;;11.74;100.00;98216.38;2081295;28;20239;-76
2021/08/07 00:42:33;;;;;;;30.23;25.08;;;;;;;11.73;100.00;98222.84;2080669;28;20258;-76
2021/08/07 00:43:40;;;;;;;28.00;25.15;;;;;;;11.74;100.00;98218.28;2081294;28;20230;-76
2021/08/07 00:44:51;;;;;;;28.85;25.67;;;;;;;11.74;100.00;98216.38;2082016;28;20223;-75
2021/08/07 00:45:52;;;;;;;29.10;25.98;;;;;;;11.73;100.00;98219.38;2088730;28;20677;-74
2021/08/07 00:47:00;;;;;;;27.73;24.92;;;;;;;11.74;100.00;98221.72;2081495;28;20226;-75
2021/08/07 00:48:05;;;;;;;28.88;25.90;;;;;;;11.73;100.00;98222.84;2089002;28;20227;-76
2021/08/07 00:49:15;;;;;;;29.23;26.17;;;;;;;11.77;100.00;98215.72;2088702;28;20238;-76
2021/08/07 00:50:20;;;;;;;28.15;25.17;;;;;;;11.78;100.00;98211.16;2081167;28;20759;-75
2021/08/07 00:51:23;;;;;;;28.63;25.52;;;;;;;11.79;100.00;98210.06;2088592;28;20301;-75
2021/08/07 00:52:27;;;;;;;27.27;24.52;;;;;;;11.76;100.00;98211.50;2089060;28;20222;-76
2021/08/07 00:53:29;;;;;;;29.13;26.10;;;;;;;11.76;100.00;98216.84;2080883;28;20223;-75
2021/08/07 00:54:40;;;;;;;28.70;25.85;;;;;;;11.74;100.00;98211.03;2075333;28;20235;-75
2021/08/07 00:55:44;;;;;;;28.05;25.35;;;;;;;11.73;100.00;98219.38;2081754;28;20220;-75
2021/08/07 00:56:46;;;;;;;28.48;25.10;;;;;;;11.74;100.00;98221.72;2072528;28;20220;-75
2021/08/07 00:57:52;;;;;;;28.40;25.42;;;;;;;11.74;100.00;98216.38;2086743;28;20250;-75
2021/08/07 00:58:56;;;;;;;27.33;24.52;;;;;;;11.72;100.00;98223.91;2088852;28;20234;-75
2021/08/07 00:59:57;;;;;;;27.75;25.00;;;;;;;11.71;100.00;98222.34;2080728;28;20705;-75
2021/08/07 01:01:02;;;;;;;28.43;25.73;;;;;;;11.70;100.00;98220.78;2088856;28;20219;-76
2021/08/07 01:02:08;;;;;;;28.88;24.33;;;;;;;11.73;100.00;98230.06;2088862;28;20223;-75
2021/08/07 01:03:22;;;;;;;26.45;23.80;;;;;;;11.69;100.00;98232.59;2081929;28;20219;-75
2021/08/07 01:04:25;;;;;;;27.30;24.67;;;;;;;11.67;100.00;98224.13;2079775;28;20223;-75
2021/08/07 01:05:37;;;;;;;27.33;24.73;;;;;;;11.70;100.00;98231.47;2081339;28;20278;-76
2021/08/07 01:06:47;;;;;;;27.45;24.85;;;;;;;11.66;100.00;98230.56;2081267;28;20227;-75
2021/08/07 01:07:53;;;;;;;27.45;24.85;;;;;;;11.60;100.00;98221.16;2081826;28;20261;-75
2021/08/07 01:09:15;;;;;;;31.83;25.83;;;;;;;11.60;100.00;98231.84;2088514;28;20275;-76
2021/08/07 01:10:21;;;;;;;28.80;25.65;;;;;;;11.54;100.00;98219.78;2083134;28;20218;-75
2021/08/07 01:11:37;;;;;;;27.45;24.77;;;;;;;11.52;100.00;98232.69;2081855;28;20215;-76
2021/08/07 01:12:47;;;;;;;28.80;25.98;;;;;;;11.47;100.00;98227.53;2081152;28;20223;-75
2021/08/07 01:13:50;;;;;;;30.35;27.30;;;;;;;11.44;100.00;98223.59;2081736;28;20227;-75
2021/08/07 01:14:56;;;;;;;30.98;28.17;;;;;;;11.40;100.00;98232.59;2081769;28;20234;-75
2021/08/07 01:16:06;;;;;;;29.98;27.02;;;;;;;11.36;100.00;98234.31;2073201;28;20702;-75
2021/08/07 01:17:13;;;;;;;29.02;26.13;;;;;;;11.32;100.00;98231.53;2081977;28;20227;-76
2021/08/07 01:18:19;;;;;;;30.40;27.48;;;;;;;11.29;100.00;98237.47;2072902;28;20224;-75
2021/08/07 01:19:25;;;;;;;33.10;26.90;;;;;;;11.26;100.00;98238.91;2086459;28;20249;-74
2021/08/07 01:20:36;;;;;;;27.95;25.38;;;;;;;11.23;100.00;98233.44;2088727;28;20313;-75
2021/08/07 01:21:40;;;;;;;30.30;27.40;;;;;;;11.18;100.00;98231.72;2080598;28;20223;-75
2021/08/07 01:22:48;;;;;;;29.65;26.55;;;;;;;11.15;100.00;98232.38;2080791;28;20223;-75
2021/08/07 01:23:56;;;;;;;28.23;25.50;;;;;;;11.15;100.00;98240.38;2081470;28;20676;-75
2021/08/07 01:25:04;;;;;;;28.23;25.52;;;;;;;11.15;100.00;98236.94;2081325;28;20310;-76
2021/08/07 01:26:13;;;;;;;29.95;27.15;;;;;;;11.13;100.00;98245.25;2074613;28;20227;-75
2021/08/07 01:27:28;;;;;;;29.63;26.63;;;;;;;11.09;100.00;98246.22;2073797;28;20245;-75
2021/08/07 01:28:41;;;;;;;30.15;27.10;;;;;;;11.06;100.00;98247.63;2076096;28;20231;-75
2021/08/07 01:29:43;;;;;;;29.83;26.77;;;;;;;11.04;100.00;98245.28;2081732;28;20279;-76
2021/08/07 01:30:47;;;;;;;30.42;27.17;;;;;;;11.01;100.00;98243.25;2072284;28;20299;-76
2021/08/07 01:31:51;;;;;;;30.45;27.40;;;;;;;11.02;100.00;98252.03;2074917;28;20220;-76
2021/08/07 01:32:56;;;;;;;28.85;25.85;;;;;;;11.01;100.00;98253.91;2074486;28;20659;-75
2021/08/07 01:34:06;;;;;;;28.42;25.63;;;;;;;10.96;100.00;98256.78;2073234;28;20231;-76
2021/08/07 01:35:18;;;;;;;31.17;26.58;;;;;;;10.97;100.00;98260.22;2081111;28;20219;-76
2021/08/07 01:36:23;;;;;;;29.33;26.30;;;;;;;10.98;100.00;98264.44;2080351;28;20227;-75
2021/08/07 01:37:30;;;;;;;29.30;26.50;;;;;;;10.95;100.00;98259.75;2080743;28;20693;-76
2021/08/07 01:38:42;;;;;;;28.75;26.05;;;;;;;10.93;100.00;98257.38;2075377;28;20828;-75
2021/08/07 01:39:45;;;;;;;30.23;27.10;;;;;;;10.94;100.00;98258.16;2081459;28;20235;-75
2021/08/07 01:40:48;;;;;;;28.50;25.75;;;;;;;10.91;100.00;98256.16;2072533;28;20623;-76
2021/08/07 01:41:54;;;;;;;30.35;27.45;;;;;;;10.91;100.00;98270.28;2086151;28;20246;-75
2021/08/07 01:42:59;;;;;;;33.22;26.33;;;;;;;10.89;100.00;98264.47;2088611;28;20219;-75
2021/08/07 01:44:06;;;;;;;29.90;26.80;;;;;;;10.87;100.00;98258.69;2081083;28;20227;-76
2021/08/07 01:45:09;;;;;;;32.60;26.02;;;;;;;10.85;100.00;98260.84;2074047;28;20699;-75
2021/08/07 01:46:12;;;;;;;29.65;25.90;;;;;;;10.85;100.00;98252.06;2073745;28;20310;-75
2021/08/07 01:47:22;;;;;;;32.88;26.70;;;;;;;10.82;100.00;98260.72;2082414;28;20268;-76
2021/08/07 01:48:31;;;;;;;30.05;27.15;;;;;;;10.83;100.00;98256.94;2072920;28;20224;-75
2021/08/07 01:49:47;;;;;;;30.75;27.52;;;;;;;10.82;100.00;98255.38;2075552;28;20636;-76
2021/08/07 01:50:53;;;;;;;29.63;26.92;;;;;;;10.78;100.00;98260.56;2080341;28;20219;-76
2021/08/07 01:51:56;;;;;;;30.67;27.85;;;;;;;10.78;100.00;98259.78;2076635;28;20315;-75
2021/08/07 01:53:01;;;;;;;36.25;27.50;;;;;;;10.74;100.00;98263.06;2088518;28;20218;-76
2021/08/07 01:54:04;;;;;;;30.33;27.15;;;;;;;10.71;100.00;98257.59;2080546;28;20234;-76
2021/08/07 01:55:13;;;;;;;29.60;26.65;;;;;;;10.68;100.00;98258.22;2088228;28;20692;-75
2021/08/07 01:56:23;;;;;;;31.42;27.05;;;;;;;10.68;100.00;98266.22;2088439;28;20261;-76
2021/08/07 01:57:28;;;;;;;30.95;27.77;;;;;;;10.65;100.00;98262.31;2074453;28;20294;-75
2021/08/07 01:58:34;;;;;;;32.22;29.00;;;;;;;10.65;100.00;98266.84;2081004;28;20315;-75
2021/08/07 01:59:35;;;;;;;30.33;27.10;;;;;;;10.65;100.00;98261.53;2072567;28;20710;-76
2021/08/07 02:00:40;;;;;;;29.40;26.23;;;;;;;10.66;100.00;98265.75;2086065;28;20227;-74
2021/08/07 02:01:45;;;;;;;30.50;27.50;;;;;;;10.65;100.00;98264.97;2080579;28;20673;-76
2021/08/07 02:02:54;;;;;;;31.63;27.65;;;;;;;10.66;100.00;98268.41;2081099;28;20233;-76
2021/08/07 02:04:02;;;;;;;30.85;27.77;;;;;;;10.67;100.00;98270.78;2088587;28;20230;-75
2021/08/07 02:05:11;;;;;;;30.50;27.23;;;;;;;10.67;100.00;98273.44;2087731;28;20747;-76
2021/08/07 02:06:14;;;;;;;29.33;26.45;;;;;;;10.66;100.00;98271.09;2080698;28;20224;-76
2021/08/07 02:07:16;;;;;;;29.40;26.77;;;;;;;10.65;100.00;98272.19;2088271;28;20226;-75
2021/08/07 02:08:18;;;;;;;29.00;26.00;;;;;;;10.63;100.00;98272.50;2080389;28;20302;-75
2021/08/07 02:09:28;;;;;;;30.45;27.58;;;;;;;10.61;100.00;98268.59;2080925;28;20697;-76
2021/08/07 02:10:33;;;;;;;31.85;28.92;;;;;;;10.60;100.00;98267.81;2081078;28;20648;-75
2021/08/07 02:11:36;;;;;;;30.75;27.58;;;;;;;10.59;100.00;98260.88;2080231;28;20223;-76
2021/08/07 02:12:40;;;;;;;28.00;25.25;;;;;;;10.58;100.00;98264.66;2087917;28;20302;-76
2021/08/07 02:13:50;;;;;;;28.90;25.95;;;;;;;10.56;100.00;98258.84;2080804;28;20227;-75
2021/08/07 02:14:57;;;;;;;29.77;26.58;;;;;;;10.56;100.00;98263.41;2080643;28;21741;-76
2021/08/07 02:16:00;;;;;;;30.35;27.35;;;;;;;10.53;100.00;98266.72;2079761;28;20662;-76
2021/08/07 02:17:04;;;;;;;31.23;27.98;;;;;;;10.52;100.00;98273.94;2080698;28;20242;-75
2021/08/07 02:18:06;;;;;;;31.37;28.10;;;;;;;10.50;100.00;98262.78;2079975;28;20216;-76
2021/08/07 02:19:07;;;;;;;31.90;28.67;;;;;;;10.48;100.00;98259.66;2079852;28;20293;-75
2021/08/07 02:20:14;;;;;;;30.48;27.38;;;;;;;10.49;100.00;98263.88;2080435;28;20784;-75
2021/08/07 02:21:16;;;;;;;31.02;28.05;;;;;;;10.49;100.00;98263.88;2088239;28;20676;-76
2021/08/07 02:22:18;;;;;;;32.67;29.70;;;;;;;10.48;100.00;98260.44;2080459;28;20770;-75
2021/08/07 02:23:20;;;;;;;29.65;26.50;;;;;;;10.47;100.00;98260.75;2080057;28;20569;-76
2021/08/07 02:24:24;;;;;;;30.75;27.52;;;;;;;10.46;100.00;98259.19;2088404;28;20308;-75
2021/08/07 02:25:25;;;;;;;28.95;26.25;;;;;;;10.44;100.00;98262.16;2081109;28;20255;-76
2021/08/07 02:26:37;;;;;;;32.42;29.27;;;;;;;10.44;100.00;98272.06;2073297;28;20212;-75
2021/08/07 02:27:41;;;;;;;34.00;27.40;;;;;;;10.44;100.00;98264.06;2074107;28;20283;-75
2021/08/07 02:28:44;;;;;;;33.33;27.02;;;;;;;10.44;100.00;98261.38;2071884;28;20251;-75
2021/08/07 02:29:48;;;;;;;31.70;27.95;;;;;;;10.48;100.00;98268.44;2082027;28;20234;-76
2021/08/07 02:30:50;;;;;;;31.05;27.83;;;;;;;10.51;100.00;98271.56;2080028;28;20709;-76
2021/08/07 02:31:53;;;;;;;30.02;27.02;;;;;;;10.55;100.00;98267.97;2077948;28;20290;-75
2021/08/07 02:32:55;;;;;;;30.63;27.37;;;;;;;10.57;100.00;98257.75;2081655;28;20235;-75
2021/08/07 02:33:56;;;;;;;32.80;29.55;;;;;;;10.57;100.00;98265.75;2071768;28;20239;-75
2021/08/07 02:34:58;;;;;;;29.23;26.33;;;;;;;10.57;100.00;98264.97;2071762;28;20311;-75
2021/08/07 02:36:06;;;;;;;30.38;25.73;;;;;;;10.56;100.00;98263.41;2079802;28;20583;-76
2021/08/07 02:37:07;;;;;;;28.55;25.55;;;;;;;10.57;100.00;98276.44;2085815;28;20226;-74
2021/08/07 02:38:11;;;;;;;30.17;27.40;;;;;;;10.54;100.00;98279.72;2088077;28;20264;-76
2021/08/07 02:39:13;;;;;;;27.90;25.05;;;;;;;10.53;100.00;98278.16;2079890;28;20238;-76
2021/08/07 02:40:16;;;;;;;30.00;27.13;;;;;;;10.52;100.00;98273.94;2080081;28;20223;-76
2021/08/07 02:41:24;;;;;;;30.88;26.67;;;;;;;10.50;100.00;98280.66;2080495;28;20219;-75
2021/08/07 02:42:28;;;;;;;30.02;27.27;;;;;;;10.53;100.00;98285.38;2080275;28;20290;-76
2021/08/07 02:43:30;;;;;;;28.45;25.80;;;;;;;10.49;100.00;98274.53;2080324;28;20682;-75
2021/08/07 02:44:33;;;;;;;28.92;26.23;;;;;;;10.48;100.00;98280.97;2080176;28;20227;-75
2021/08/07 02:45:36;;;;;;;30.02;26.67;;;;;;;10.45;100.00;98278.94;2079932;28;20223;-76
2021/08/07 02:46:40;;;;;;;30.45;27.13;;;;;;;10.45;100.00;98281.63;2079539;28;20223;-76
2021/08/07 02:47:41;;;;;;;29.15;26.25;;;;;;;10.43;100.00;98271.28;2080133;28;20318;-76
2021/08/07 02:48:43;;;;;;;29.40;26.33;;;;;;;10.42;100.00;98276.91;2088307;28;20233;-76
2021/08/07 02:49:44;;;;;;;30.85;27.65;;;;;;;10.42;100.00;98282.22;2079727;28;20231;-76
2021/08/07 02:50:45;;;;;;;29.93;26.87;;;;;;;10.38;100.00;98282.09;2080078;28;20273;-75
2021/08/07 02:51:49;;;;;;;30.58;27.75;;;;;;;10.35;100.00;98273.94;2079903;28;20733;-76
2021/08/07 02:52:52;;;;;;;30.83;27.80;;;;;;;10.34;100.00;98277.69;2087964;28;20712;-75
2021/08/07 02:53:54;;;;;;;30.60;27.38;;;;;;;10.35;100.00;98284.59;2079571;28;20231;-75
2021/08/07 02:54:57;;;;;;;30.23;27.17;;;;;;;10.32;100.00;98280.66;2079788;28;20636;-75
2021/08/07 02:55:58;;;;;;;30.50;27.25;;;;;;;10.33;100.00;98276.13;2080100;28;20249;-76
2021/08/07 02:57:03;;;;;;;31.85;28.80;;;;;;;10.36;100.00;98278.16;2080466;28;20227;-76
2021/08/07 02:58:06;;;;;;;32.83;29.40;;;;;;;10.40;100.00;98281.75;2080141;28;20724;-75
2021/08/07 02:59:10;;;;;;;32.67;28.80;;;;;;;10.43;100.00;98281.16;2087649;28;20247;-76
2021/08/07 03:00:13;;;;;;;32.33;29.05;;;;;;;10.46;100.00;98278.63;2080147;28;20228;-75
2021/08/07 03:01:16;;;;;;;31.90;29.10;;;;;;;10.47;100.00;98282.09;2079671;28;20269;-75
2021/08/07 03:02:22;;;;;;;30.75;27.45;;;;;;;10.46;100.00;98283.19;2087627;28;20218;-75
2021/08/07 03:03:25;;;;;;;29.50;26.38;;;;;;;10.47;100.00;98282.88;2079798;28;20226;-75
2021/08/07 03:04:28;;;;;;;32.38;29.02;;;;;;;10.47;100.00;98287.41;2088088;28;20222;-75
2021/08/07 03:05:31;;;;;;;29.80;27.17;;;;;;;10.44;100.00;98288.06;2079926;28;20227;-76
2021/08/07 03:06:35;;;;;;;29.38;26.63;;;;;;;10.43;100.00;98291.81;2080249;28;20302;-75
2021/08/07 03:07:38;;;;;;;28.98;25.85;;;;;;;10.41;100.00;98283.31;2087695;28;20277;-75
2021/08/07 03:08:40;;;;;;;31.10;25.75;;;;;;;10.39;100.00;98280.97;2079878;28;20310;-76
2021/08/07 03:09:45;;;;;;;28.95;26.05;;;;;;;10.36;100.00;98286.16;2087914;28;20234;-75
2021/08/07 03:10:49;;;;;;;29.85;26.67;;;;;;;10.34;100.00;98286.50;2087949;28;20222;-76
2021/08/07 03:11:55;;;;;;;30.50;27.70;;;;;;;10.32;100.00;98285.22;2080031;28;20226;-75
2021/08/07 03:12:59;;;;;;;30.70;27.50;;;;;;;10.32;100.00;98282.53;2079957;28;20310;-76
2021/08/07 03:14:03;;;;;;;29.95;26.85;;;;;;;10.34;100.00;98285.69;2080274;28;20792;-75
2021/08/07 03:15:09;;;;;;;30.42;27.15;;;;;;;10.32;100.00;98288.66;2079857;28;20697;-75
2021/08/07 03:16:11;;;;;;;29.02;26.17;;;;;;;10.30;100.00;98282.84;2079725;28;20227;-76
2021/08/07 03:17:19;;;;;;;28.80;25.75;;;;;;;10.28;100.00;98286.94;2080449;28;20227;-76
2021/08/07 03:18:22;;;;;;;28.17;25.27;;;;;;;10.28;100.00;98284.28;2079811;28;20314;-74
2021/08/07 03:19:24;;;;;;;27.50;24.70;;;;;;;10.28;100.00;98286.94;2079652;28;20243;-75
2021/08/07 03:20:30;;;;;;;28.80;25.63;;;;;;;10.26;100.00;98291.81;2087927;28;20713;-76
2021/08/07 03:21:34;;;;;;;27.83;24.90;;;;;;;10.27;100.00;98290.72;2080372;28;20229;-76
2021/08/07 03:22:38;;;;;;;31.30;25.35;;;;;;;10.26;100.00;98289.94;2079671;28;20227;-75
2021/08/07 03:23:39;;;;;;;28.15;25.33;;;;;;;10.34;100.00;98293.69;2079873;28;20227;-76
2021/08/07 03:24:41;;;;;;;34.47;26.10;;;;;;;10.32;100.00;98286.00;2087798;28;20234;-75
2021/08/07 03:25:42;;;;;;;28.55;25.58;;;;;;;10.34;100.00;98283.81;2079692;28;20234;-75
2021/08/07 03:26:51;;;;;;;27.88;25.15;;;;;;;10.32;100.00;98285.22;2080455;28;20247;-75
2021/08/07 03:27:54;;;;;;;27.88;24.83;;;;;;;10.35;100.00;98285.38;2080441;28;20315;-75
2021/08/07 03:28:56;;;;;;;28.25;25.33;;;;;;;10.36;100.00;98283.50;2081527;28;20306;-76
2021/08/07 03:29:58;;;;;;;28.33;25.35;;;;;;;10.37;100.00;98293.06;2081456;28;20226;-75
2021/08/07 03:31:01;;;;;;;26.88;24.08;;;;;;;10.36;100.00;98281.63;2081602;28;20219;-76
2021/08/07 03:32:08;;;;;;;27.20;24.45;;;;;;;10.39;100.00;98285.53;2081726;28;20223;-74
2021/08/07 03:33:16;;;;;;;28.60;25.55;;;;;;;10.39;100.00;98291.66;2082154;28;20223;-75
2021/08/07 03:34:18;;;;;;;27.15;24.30;;;;;;;10.40;100.00;98287.09;2089530;28;20222;-75
2021/08/07 03:35:19;;;;;;;28.38;25.48;;;;;;;10.43;100.00;98291.81;2089628;28;20219;-75
2021/08/07 03:36:21;;;;;;;28.80;25.80;;;;;;;10.44;100.00;98285.38;2081610;28;20270;-76
2021/08/07 03:37:28;;;;;;;26.67;23.80;;;;;;;10.47;100.00;98284.75;2081574;28;20223;-75
2021/08/07 03:38:35;;;;;;;26.83;24.13;;;;;;;10.50;100.00;98278.00;2082119;28;20281;-76
2021/08/07 03:39:37;;;;;;;26.45;23.67;;;;;;;10.59;100.00;98284.91;2089688;28;20309;-75
2021/08/07 03:40:38;;;;;;;27.00;24.17;;;;;;;10.69;100.00;98286.47;2089214;28;20234;-74
2021/08/07 03:41:47;;;;;;;26.85;24.13;;;;;;;10.76;100.00;98292.88;2082168;28;20231;-76
2021/08/07 03:42:49;;;;;;;27.23;24.40;;;;;;;10.81;100.00;98294.63;2089439;28;20750;-75
2021/08/07 03:43:54;;;;;;;26.27;23.48;;;;;;;10.83;100.00;98299.63;2081388;28;20238;-75
2021/08/07 03:44:57;;;;;;;26.52;23.77;;;;;;;10.88;100.00;98296.81;2081513;28;20234;-76
2021/08/07 03:45:59;;;;;;;28.10;23.93;;;;;;;10.90;100.00;98297.28;2089647;28;20218;-76
2021/08/07 03:47:02;;;;;;;25.83;23.30;;;;;;;10.92;100.00;98297.75;2089396;28;20226;-76
2021/08/07 03:48:04;;;;;;;26.10;23.33;;;;;;;10.93;100.00;98300.09;2089553;28;20222;-76
2021/08/07 03:49:14;;;;;;;25.52;23.02;;;;;;;10.95;100.00;98299.78;2089187;28;20233;-75
2021/08/07 03:50:20;;;;;;;25.73;23.27;;;;;;;10.95;100.00;98297.13;2089456;28;20633;-76
2021/08/07 03:51:21;;;;;;;27.40;24.52;;;;;;;10.96;100.00;98299.47;2089628;28;20316;-75
2021/08/07 03:52:22;;;;;;;27.05;24.20;;;;;;;10.96;100.00;98294.13;2088957;28;20225;-75
2021/08/07 03:53:26;;;;;;;27.58;24.73;;;;;;;10.97;100.00;98295.69;2081348;28;20319;-76
2021/08/07 03:54:30;;;;;;;27.67;24.80;;;;;;;10.97;100.00;98289.59;2081493;28;20223;-76
2021/08/07 03:55:34;;;;;;;27.70;25.05;;;;;;;11.01;100.00;98293.16;2081673;28;20230;-75
2021/08/07 03:56:37;;;;;;;26.75;24.02;;;;;;;11.02;100.00;98290.19;2081196;28;20590;-75
2021/08/07 03:57:48;;;;;;;26.73;24.15;;;;;;;11.04;100.00;98284.53;2081372;28;20227;-76
2021/08/07 03:58:49;;;;;;;26.83;24.02;;;;;;;11.10;100.00;98291.25;2089416;28;20276;-75
2021/08/07 03:59:53;;;;;;;27.48;24.58;;;;;;;11.08;100.00;98282.78;2080905;28;20227;-74
2021/08/07 04:00:53;;;;;;;26.55;24.00;;;;;;;11.10;100.00;98288.59;2081010;28;20227;-75
2021/08/07 04:02:00;;;;;;;27.67;24.80;;;;;;;11.11;100.00;98290.16;2089248;28;20242;-75
2021/08/07 04:03:01;;;;;;;26.70;24.05;;;;;;;11.10;100.00;98285.94;2089306;28;20593;-75
2021/08/07 04:04:04;;;;;;;27.03;24.13;;;;;;;11.10;100.00;98288.59;2081011;28;20265;-76
2021/08/07 04:05:15;;;;;;;27.05;24.25;;;;;;;11.13;100.00;98290.66;2081935;28;20442;-75
2021/08/07 04:06:17;;;;;;;28.30;25.50;;;;;;;11.14;100.00;98288.75;2089227;28;20568;-76
2021/08/07 04:07:18;;;;;;;27.05;24.38;;;;;;;11.14;100.00;98294.09;2081307;28;20230;-76
2021/08/07 04:08:24;;;;;;;29.02;24.52;;;;;;;11.17;100.00;98288.91;2075221;28;20254;-76
2021/08/07 04:09:24;;;;;;;26.50;23.88;;;;;;;11.15;100.00;98293.78;2082794;28;20226;-76
2021/08/07 04:10:28;;;;;;;26.98;24.48;;;;;;;11.17;100.00;98296.13;2081106;28;20243;-75
2021/08/07 04:11:30;;;;;;;28.15;25.10;;;;;;;11.16;100.00;98291.88;2081138;28;20697;-75
2021/08/07 04:12:35;;;;;;;26.77;24.25;;;;;;;11.15;100.00;98291.09;2081139;28;20254;-76
2021/08/07 04:13:37;;;;;;;29.43;25.50;;;;;;;11.14;100.00;98292.22;2081236;28;20744;-76
2021/08/07 04:14:40;;;;;;;28.40;25.60;;;;;;;11.16;100.00;98292.66;2084400;28;20314;-76
2021/08/07 04:15:42;;;;;;;29.02;25.98;;;;;;;11.17;100.00;98299.56;2073013;28;20599;-76
2021/08/07 04:16:46;;;;;;;28.50;25.73;;;;;;;11.15;100.00;98299.13;2075212;28;20232;-76
2021/08/07 04:17:55;;;;;;;29.52;25.33;;;;;;;11.15;100.00;98296.44;2087243;28;20680;-75
2021/08/07 04:18:55;;;;;;;28.23;25.23;;;;;;;11.17;100.00;98294.22;2089141;28;20219;-76
2021/08/07 04:19:57;;;;;;;29.43;25.83;;;;;;;11.15;100.00;98288.44;2080944;28;20227;-76
2021/08/07 04:21:04;;;;;;;29.40;26.15;;;;;;;11.18;100.00;98298.47;2089172;28;20478;-75
2021/08/07 04:22:05;;;;;;;29.33;26.08;;;;;;;11.19;100.00;98292.03;2089176;28;20225;-76
2021/08/07 04:23:13;;;;;;;31.42;26.40;;;;;;;11.21;100.00;98291.72;2088745;28;20314;-75
2021/08/07 04:24:16;;;;;;;29.20;26.08;;;;;;;11.23;100.00;98294.84;2081281;28;20219;-75
2021/08/07 04:25:18;;;;;;;30.25;26.10;;;;;;;11.24;100.00;98294.53;2080894;28;20277;-75
2021/08/07 04:26:19;;;;;;;28.85;25.75;;;;;;;11.27;100.00;98288.53;2080972;28;20223;-75
2021/08/07 04:27:21;;;;;;;27.53;24.90;;;;;;;11.30;100.00;98297.81;2089185;28;20222;-75
2021/08/07 04:28:24;;;;;;;29.85;26.80;;;;;;;11.31;100.00;98300.19;2088795;28;20222;-75
2021/08/07 04:29:27;;;;;;;28.45;25.13;;;;;;;11.32;100.00;98300.97;2081230;28;20794;-76
2021/08/07 04:30:31;;;;;;;29.30;26.27;;;;;;;11.33;100.00;98297.97;2089240;28;20318;-76
2021/08/07 04:31:34;;;;;;;29.88;27.08;;;;;;;11.37;100.00;98302.66;2081311;28;20231;-76
2021/08/07 04:32:37;;;;;;;29.30;26.40;;;;;;;11.37;100.00;98297.31;2081064;28;20689;-76
2021/08/07 04:33:41;;;;;;;29.67;26.60;;;;;;;11.40;100.00;98310.84;2081371;28;20223;-76
2021/08/07 04:34:46;;;;;;;28.60;25.67;;;;;;;11.40;100.00;98307.38;2081284;28;20234;-76
2021/08/07 04:35:51;;;;;;;28.67;25.80;;;;;;;11.43;100.00;98304.06;2081435;28;20254;-76
2021/08/07 04:36:57;;;;;;;28.13;25.20;;;;;;;11.42;100.00;98300.59;2081130;28;20235;-75
2021/08/07 04:38:02;;;;;;;29.05;26.05;;;;;;;11.47;100.00;98302.31;2081089;28;20254;-76
2021/08/07 04:39:06;;;;;;;28.55;25.65;;;;;;;11.50;100.00;98307.03;2081268;28;20231;-75
2021/08/07 04:40:08;;;;;;;27.87;25.10;;;;;;;11.52;100.00;98304.81;2076404;28;20258;-75
2021/08/07 04:41:09;;;;;;;28.23;25.52;;;;;;;11.57;100.00;98312.66;2074659;28;20585;-75
2021/08/07 04:42:13;;;;;;;29.13;24.45;;;;;;;11.59;100.00;98305.09;2079781;28;20231;-75
2021/08/07 04:43:14;;;;;;;27.52;24.98;;;;;;;11.60;100.00;98306.66;2081931;28;20579;-76
2021/08/07 04:44:15;;;;;;;27.77;25.07;;;;;;;11.65;100.00;98301.16;2081054;28;20249;-75
2021/08/07 04:45:17;;;;;;;28.58;25.55;;;;;;;11.66;100.00;98302.72;2072562;28;20310;-76
2021/08/07 04:46:18;;;;;;;27.55;25.02;;;;;;;11.73;100.00;98307.56;2072635;28;20270;-76
2021/08/07 04:47:23;;;;;;;27.33;24.45;;;;;;;11.75;100.00;98311.47;2076559;28;20222;-74
2021/08/07 04:48:25;;;;;;;27.48;24.52;;;;;;;11.78;100.00;98310.03;2088906;28;20222;-75
2021/08/07 04:49:34;;;;;;;26.48;23.98;;;;;;;11.80;100.00;98308.63;2081719;28;20241;-75
2021/08/07 04:50:36;;;;;;;27.73;24.92;;;;;;;11.83;100.00;98310.69;2089212;28;20229;-75
2021/08/07 04:51:39;;;;;;;29.40;24.15;;;;;;;11.88;100.00;98312.38;2080729;28;20633;-76